Terminal Aerodrome Forecast
Issued by NWS Jackson, MS

Home | Current Version | Previous Version | Text Only | Print | Product List | Glossary On
Versions: 1 2 3 4 5 6 7 8 9 10 11 12 13
809
FTUS44 KMEG 231127
TAFTUP
TAF
KTUP 231127Z 2312/2412 02007KT P6SM VCSH SCT025 BKN035 BKN150
      TEMPO 2313/2316 BKN025
     FM231800 04010KT P6SM BKN040 BKN250
     FM232100 04010KT P6SM SCT045 BKN250
     FM240100 03006KT P6SM FEW250=

USA.gov is the U.S. government's official web portal to all federal, state and local government web resources and services.